Time;durP1;ratioP1;P1;durP2;ratioP2;P2;SDS_P1;SDS_P2;PMS_P1;PMS_P2;Temp;Humidity;BMP_temperature;BMP_pressure;BME280_temperature;BME280_humidity;BME280_pressure;Samples;Min_cycle;Max_cycle;Signal;HPM_P1;HPM_P2
2020/12/19 00:00:40;;;;;;;29.40;15.47;;;4.10;93.90;;;;;;5010313;28;20052;-73
2020/12/19 00:03:06;;;;;;;36.80;16.80;;;4.10;93.90;;;;;;5011497;28;20511;-73
2020/12/19 00:05:32;;;;;;;31.40;16.07;;;4.10;94.00;;;;;;5010810;28;20025;-73
2020/12/19 00:07:57;;;;;;;35.73;17.13;;;4.10;93.90;;;;;;5011521;28;20440;-73
2020/12/19 00:10:23;;;;;;;34.47;15.97;;;4.10;93.90;;;;;;5010326;28;20616;-73
2020/12/19 00:12:49;;;;;;;32.43;15.67;;;4.10;94.10;;;;;;5010800;28;20064;-72
2020/12/19 00:15:15;;;;;;;34.30;16.43;;;4.10;94.20;;;;;;5010390;28;20041;-73
2020/12/19 00:17:41;;;;;;;33.27;15.97;;;4.10;94.10;;;;;;5011804;28;20096;-73
2020/12/19 00:20:08;;;;;;;28.43;14.63;;;4.10;94.00;;;;;;5011421;28;20575;-73
2020/12/19 00:22:34;;;;;;;32.50;16.07;;;4.10;94.10;;;;;;5011055;28;20124;-73
2020/12/19 00:24:59;;;;;;;32.67;15.33;;;4.10;94.00;;;;;;5011743;28;20113;-73
2020/12/19 00:27:25;;;;;;;37.10;16.37;;;4.00;93.80;;;;;;5010060;28;20223;-73
2020/12/19 00:29:51;;;;;;;33.57;15.30;;;4.00;93.70;;;;;;5011531;28;20038;-73
2020/12/19 00:32:17;;;;;;;30.20;15.00;;;3.90;93.90;;;;;;5009332;28;20038;-73
2020/12/19 00:34:43;;;;;;;42.00;18.33;;;3.90;93.80;;;;;;5011492;28;20041;-73
2020/12/19 00:37:08;;;;;;;37.40;18.03;;;3.90;93.90;;;;;;5011317;28;20045;-73
2020/12/19 00:39:34;;;;;;;34.63;16.20;;;3.90;94.10;;;;;;5011246;28;20038;-73
2020/12/19 00:42:00;;;;;;;35.20;17.03;;;3.90;94.20;;;;;;5010986;28;20041;-73
2020/12/19 00:44:25;;;;;;;34.27;16.43;;;3.90;94.00;;;;;;5010934;28;20057;-73
2020/12/19 00:46:52;;;;;;;33.80;15.60;;;3.90;94.20;;;;;;5011212;28;20450;-73
2020/12/19 00:49:18;;;;;;;35.63;17.23;;;3.90;94.20;;;;;;5011360;28;20487;-73
2020/12/19 00:51:44;;;;;;;35.87;17.77;;;3.90;94.10;;;;;;5010175;28;20033;-73
2020/12/19 00:54:10;;;;;;;36.13;17.50;;;3.90;94.20;;;;;;5011284;28;20060;-72
2020/12/19 00:56:36;;;;;;;39.87;18.80;;;3.80;94.00;;;;;;5010805;28;20064;-73
2020/12/19 00:59:03;;;;;;;35.20;17.40;;;3.80;94.10;;;;;;5011187;28;20038;-73
2020/12/19 01:01:28;;;;;;;33.90;17.30;;;3.80;94.20;;;;;;5011323;28;20113;-73
2020/12/19 01:03:59;;;;;;;36.73;17.13;;;3.80;94.00;;;;;;5008900;28;20041;-73
2020/12/19 01:06:25;;;;;;;40.40;18.08;;;3.80;93.90;;;;;;5009929;28;20110;-73
2020/12/19 01:09:01;;;;;;;42.37;19.13;;;3.70;94.00;;;;;;5010716;28;20411;-73
2020/12/19 01:11:28;;;;;;;41.90;18.87;;;3.70;94.10;;;;;;5009781;28;20030;-73
2020/12/19 01:13:55;;;;;;;40.33;18.30;;;3.70;94.30;;;;;;5010037;28;20045;-73
2020/12/19 01:16:26;;;;;;;36.17;17.77;;;3.70;94.20;;;;;;4993404;28;20495;-73
2020/12/19 01:18:55;;;;;;;35.57;18.10;;;3.70;94.20;;;;;;5010723;28;20081;-73
2020/12/19 01:21:26;;;;;;;36.80;17.67;;;3.70;94.20;;;;;;5012498;28;20041;-73
2020/12/19 01:23:52;;;;;;;40.07;17.97;;;3.70;94.20;;;;;;5014016;28;20042;-72
2020/12/19 01:26:18;;;;;;;35.83;17.73;;;3.70;94.20;;;;;;5014866;28;20038;-73
2020/12/19 01:28:45;;;;;;;36.37;17.80;;;3.70;94.20;;;;;;4997344;28;20037;-73
2020/12/19 01:31:16;;;;;;;38.63;18.57;;;3.70;94.20;;;;;;5014552;28;20096;-73
2020/12/19 01:33:43;;;;;;;36.90;18.37;;;3.70;94.30;;;;;;5014288;28;20129;-73
2020/12/19 01:36:17;;;;;;;38.07;18.67;;;3.70;94.20;;;;;;5014404;28;20073;-72
2020/12/19 01:38:43;;;;;;;42.87;19.93;;;3.60;94.20;;;;;;5013977;28;20029;-74
2020/12/19 01:41:09;;;;;;;46.97;21.00;;;3.60;94.20;;;;;;5013488;28;20113;-74
2020/12/19 01:43:56;;;;;;;49.27;20.33;;;3.60;94.50;;;;;;5013679;28;20045;-74
2020/12/19 01:46:31;;;;;;;44.73;20.20;;;3.60;94.20;;;;;;5014229;28;20073;-74
2020/12/19 01:48:58;;;;;;;46.23;21.07;;;3.60;94.30;;;;;;5013214;28;20421;-74
2020/12/19 01:51:25;;;;;;;49.47;20.57;;;3.60;94.30;;;;;;5013982;28;20116;-72
2020/12/19 01:53:52;;;;;;;45.33;20.87;;;3.50;94.20;;;;;;5014086;28;20060;-74
2020/12/19 01:56:34;;;;;;;50.73;21.10;;;3.50;94.30;;;;;;5014466;28;20395;-74
2020/12/19 01:59:00;;;;;;;49.37;20.23;;;3.50;94.40;;;;;;5014189;28;20037;-74
2020/12/19 02:01:28;;;;;;;47.30;21.07;;;3.60;94.50;;;;;;5014132;28;20063;-74
2020/12/19 02:03:54;;;;;;;47.83;21.50;;;3.60;94.50;;;;;;4995845;28;20529;-74
2020/12/19 02:06:22;;;;;;;49.90;22.07;;;3.60;94.50;;;;;;5014247;28;20057;-74
2020/12/19 02:08:49;;;;;;;47.73;20.70;;;3.60;94.50;;;;;;5013842;28;20062;-74
2020/12/19 02:11:15;;;;;;;47.77;21.07;;;3.60;94.50;;;;;;5014025;28;20034;-74
2020/12/19 02:13:41;;;;;;;43.00;20.07;;;3.60;94.40;;;;;;5012843;28;20095;-74
2020/12/19 02:16:06;;;;;;;46.67;20.70;;;3.60;94.50;;;;;;5012448;28;20368;-74
2020/12/19 02:18:32;;;;;;;45.83;20.37;;;3.60;94.50;;;;;;5011627;28;20033;-74
2020/12/19 02:20:58;;;;;;;47.93;21.43;;;3.60;94.50;;;;;;5012484;28;20121;-74
2020/12/19 02:23:23;;;;;;;42.97;20.70;;;3.60;94.40;;;;;;5010936;28;20446;-74
2020/12/19 02:25:49;;;;;;;48.97;21.27;;;3.60;94.50;;;;;;5012652;28;20038;-74
2020/12/19 02:28:15;;;;;;;50.80;21.93;;;3.60;94.60;;;;;;5012253;28;20045;-74
2020/12/19 02:30:41;;;;;;;49.03;21.87;;;3.60;94.60;;;;;;5012608;28;20129;-74
2020/12/19 02:33:06;;;;;;;52.53;21.90;;;3.60;94.60;;;;;;5010047;28;20125;-74
2020/12/19 02:35:32;;;;;;;50.47;21.50;;;3.60;94.70;;;;;;5012567;28;20068;-74
2020/12/19 02:38:02;;;;;;;51.07;22.40;;;3.60;94.70;;;;;;4994876;28;20045;-74
2020/12/19 02:40:28;;;;;;;51.63;22.80;;;3.60;94.60;;;;;;5012048;28;20049;-74
2020/12/19 02:42:53;;;;;;;52.33;22.53;;;3.60;94.50;;;;;;5010521;28;20045;-74
2020/12/19 02:45:19;;;;;;;54.23;22.53;;;3.60;94.50;;;;;;5012099;28;20060;-74
2020/12/19 02:47:45;;;;;;;57.17;23.33;;;3.50;94.50;;;;;;5011013;28;20061;-74
2020/12/19 02:50:10;;;;;;;58.73;24.63;;;3.50;94.50;;;;;;5011216;28;20487;-74
2020/12/19 02:52:36;;;;;;;58.60;24.73;;;3.50;94.50;;;;;;5010106;28;20050;-74
2020/12/19 02:55:02;;;;;;;64.00;23.87;;;3.50;94.60;;;;;;5012405;28;20556;-74
2020/12/19 02:57:27;;;;;;;60.97;23.77;;;3.50;94.70;;;;;;5011386;28;20041;-74
2020/12/19 02:59:53;;;;;;;57.80;24.03;;;3.50;94.60;;;;;;5010753;28;20054;-74
2020/12/19 03:02:19;;;;;;;57.67;23.37;;;3.50;94.70;;;;;;4994120;28;20407;-74
2020/12/19 03:04:44;;;;;;;57.57;24.10;;;3.50;94.70;;;;;;5010326;28;20034;-74
2020/12/19 03:07:10;;;;;;;50.43;23.10;;;3.60;94.80;;;;;;5012090;28;20038;-74
2020/12/19 03:09:36;;;;;;;57.57;23.93;;;3.50;94.80;;;;;;5012208;28;20121;-74
2020/12/19 03:12:03;;;;;;;54.13;22.77;;;3.50;94.70;;;;;;5011064;28;20383;-74
2020/12/19 03:14:29;;;;;;;54.13;23.80;;;3.60;94.70;;;;;;4991529;28;602877;-74
2020/12/19 03:16:54;;;;;;;64.13;25.43;;;3.50;94.70;;;;;;5012390;28;20506;-74
2020/12/19 03:19:20;;;;;;;66.83;27.30;;;3.50;94.60;;;;;;5012895;28;20049;-74
2020/12/19 03:21:46;;;;;;;63.07;25.37;;;3.50;94.80;;;;;;5012377;28;20065;-74
2020/12/19 03:24:11;;;;;;;62.77;24.87;;;3.50;95.00;;;;;;5012517;28;20042;-74
2020/12/19 03:26:37;;;;;;;65.93;25.83;;;3.50;94.80;;;;;;5012555;28;20042;-74
2020/12/19 03:29:03;;;;;;;65.03;25.27;;;3.50;94.80;;;;;;5012261;28;20042;-74
2020/12/19 03:31:29;;;;;;;66.90;25.07;;;3.50;94.80;;;;;;5012671;28;20026;-74
2020/12/19 03:33:54;;;;;;;61.17;25.37;;;3.50;94.90;;;;;;5010795;28;20414;-74
2020/12/19 03:36:20;;;;;;;65.73;24.67;;;3.50;94.90;;;;;;5012057;28;20041;-74
2020/12/19 03:38:46;;;;;;;68.20;25.93;;;3.50;94.90;;;;;;5011311;28;20045;-74
2020/12/19 03:41:12;;;;;;;61.97;25.13;;;3.50;94.80;;;;;;5012004;28;20026;-74
2020/12/19 03:43:37;;;;;;;62.70;25.30;;;3.50;94.80;;;;;;5011066;28;20562;-74
2020/12/19 03:46:03;;;;;;;61.10;24.83;;;3.50;94.70;;;;;;5012448;28;20096;-74
2020/12/19 03:48:29;;;;;;;68.10;26.30;;;3.50;94.80;;;;;;4994244;28;20053;-74
2020/12/19 03:50:55;;;;;;;68.47;26.13;;;3.50;94.80;;;;;;5012409;28;20414;-74
2020/12/19 03:53:20;;;;;;;67.03;27.47;;;3.50;94.70;;;;;;5011278;28;20546;-74
2020/12/19 03:55:46;;;;;;;70.97;27.17;;;3.40;94.70;;;;;;5012299;28;20073;-74
2020/12/19 03:58:12;;;;;;;70.83;27.83;;;3.40;94.80;;;;;;5011950;28;20088;-74
2020/12/19 04:00:38;;;;;;;77.47;28.10;;;3.40;94.80;;;;;;5043401;28;20045;-74
2020/12/19 04:03:04;;;;;;;80.10;28.80;;;3.40;94.80;;;;;;5010405;28;20511;-74
2020/12/19 04:05:29;;;;;;;77.50;27.40;;;3.40;94.90;;;;;;5011609;28;20042;-74
2020/12/19 04:07:55;;;;;;;83.87;28.27;;;3.40;94.90;;;;;;5011982;28;20125;-74
2020/12/19 04:10:21;;;;;;;74.33;27.70;;;3.40;94.90;;;;;;5011837;28;20026;-74
2020/12/19 04:12:47;;;;;;;79.57;28.63;;;3.50;94.90;;;;;;5010781;28;20041;-74
2020/12/19 04:15:12;;;;;;;76.53;27.60;;;3.40;94.80;;;;;;5010710;28;20056;-74
2020/12/19 04:17:39;;;;;;;81.80;29.43;;;3.40;94.90;;;;;;5011349;28;20076;-74
2020/12/19 04:20:06;;;;;;;83.10;29.23;;;3.40;94.90;;;;;;4994151;28;20030;-74
2020/12/19 04:22:32;;;;;;;100.13;31.30;;;3.40;95.20;;;;;;5011097;28;20034;-74
2020/12/19 04:24:58;;;;;;;100.83;30.83;;;3.40;94.90;;;;;;5010029;28;20037;-74
2020/12/19 04:27:24;;;;;;;94.83;30.70;;;3.40;95.10;;;;;;5011569;28;20038;-74
2020/12/19 04:29:50;;;;;;;96.63;31.47;;;3.50;95.10;;;;;;5011224;28;20038;-74
2020/12/19 04:32:15;;;;;;;88.47;30.37;;;3.50;95.20;;;;;;5011074;28;20116;-74
2020/12/19 04:34:41;;;;;;;92.87;29.47;;;3.50;95.10;;;;;;5011437;28;20064;-74
2020/12/19 04:37:07;;;;;;;94.30;30.67;;;3.50;95.10;;;;;;5011263;28;20129;-74
2020/12/19 04:39:34;;;;;;;95.00;31.77;;;3.50;95.10;;;;;;5011448;28;20045;-74
2020/12/19 04:41:59;;;;;;;98.20;31.87;;;3.50;95.20;;;;;;5009283;28;20099;-74
2020/12/19 04:44:25;;;;;;;95.27;31.70;;;3.50;95.20;;;;;;5011322;28;20134;-75
2020/12/19 04:46:51;;;;;;;86.97;29.67;;;3.60;95.20;;;;;;5011276;28;20107;-74
2020/12/19 04:49:18;;;;;;;95.90;30.87;;;3.60;95.10;;;;;;5010978;28;20495;-74
2020/12/19 04:51:45;;;;;;;85.87;28.43;;;3.60;95.10;;;;;;5010766;28;20034;-74
2020/12/19 04:54:11;;;;;;;89.77;29.17;;;3.60;95.10;;;;;;5009487;28;20042;-74
2020/12/19 04:56:38;;;;;;;75.83;27.90;;;3.60;95.10;;;;;;5009648;28;20034;-74
2020/12/19 04:59:04;;;;;;;80.10;28.03;;;3.60;95.20;;;;;;5011215;28;20042;-74
2020/12/19 05:01:31;;;;;;;86.73;29.53;;;3.60;95.10;;;;;;5010848;28;20042;-74
2020/12/19 05:03:57;;;;;;;82.83;28.83;;;3.60;95.00;;;;;;5010672;28;20072;-74
2020/12/19 05:06:26;;;;;;;76.23;24.43;;;3.50;95.00;;;;;;5009431;28;20065;-74
2020/12/19 05:08:52;;;;;;;83.07;28.77;;;3.50;95.10;;;;;;5009790;28;20049;-74
2020/12/19 05:11:19;;;;;;;94.57;28.83;;;3.50;95.10;;;;;;5011155;28;20523;-74
2020/12/19 05:13:45;;;;;;;88.83;27.90;;;3.50;95.10;;;;;;5010097;28;20046;-74
2020/12/19 05:16:12;;;;;;;83.53;27.97;;;3.50;95.10;;;;;;5011030;28;20042;-74
2020/12/19 05:18:39;;;;;;;82.27;27.67;;;3.60;95.20;;;;;;5010497;28;20041;-75
2020/12/19 05:21:06;;;;;;;86.23;28.37;;;3.60;95.20;;;;;;5011030;28;20042;-74
2020/12/19 05:23:36;;;;;;;69.87;23.83;;;3.60;95.20;;;;;;5010477;28;20134;-74
2020/12/19 05:26:03;;;;;;;84.37;28.63;;;3.60;95.20;;;;;;5010717;28;20037;-74
2020/12/19 05:28:30;;;;;;;80.77;28.30;;;3.50;95.20;;;;;;5010964;28;20038;-74
2020/12/19 05:30:58;;;;;;;80.60;27.60;;;3.60;95.20;;;;;;5010357;28;20076;-75
2020/12/19 05:33:24;;;;;;;88.23;27.47;;;3.50;95.10;;;;;;5010375;28;20661;-75
2020/12/19 05:35:50;;;;;;;91.37;28.60;;;3.50;95.10;;;;;;5009097;28;20519;-75
2020/12/19 05:38:15;;;;;;;85.70;28.30;;;3.50;95.20;;;;;;5010682;28;20037;-74
2020/12/19 05:40:41;;;;;;;83.13;26.83;;;3.50;95.10;;;;;;4993200;28;20034;-74
2020/12/19 05:43:07;;;;;;;75.17;26.30;;;3.50;95.30;;;;;;5009792;28;20129;-74
2020/12/19 05:45:33;;;;;;;75.93;26.63;;;3.50;95.40;;;;;;5010822;28;20483;-74
2020/12/19 05:47:59;;;;;;;71.63;25.87;;;3.60;95.40;;;;;;5010423;28;20491;-74
2020/12/19 05:50:24;;;;;;;64.53;25.43;;;3.60;95.40;;;;;;5010748;28;20172;-74
2020/12/19 05:52:50;;;;;;;60.37;20.97;;;3.60;95.40;;;;;;5008746;28;20030;-74
2020/12/19 05:55:19;;;;;;;74.20;26.30;;;3.60;95.30;;;;;;5010373;28;20038;-74
2020/12/19 05:57:45;;;;;;;72.20;25.27;;;3.60;95.40;;;;;;5009391;28;20096;-74
2020/12/19 06:00:14;;;;;;;68.03;24.83;;;3.60;95.30;;;;;;5010714;28;20495;-74
2020/12/19 06:02:41;;;;;;;75.03;27.00;;;3.60;95.20;;;;;;5008645;28;20067;-75
2020/12/19 06:05:09;;;;;;;84.37;27.33;;;3.60;95.10;;;;;;4992911;28;20132;-75
2020/12/19 06:07:40;;;;;;;77.63;26.07;;;3.50;95.10;;;;;;5010576;28;20042;-74
2020/12/19 06:10:09;;;;;;;71.90;26.00;;;3.60;95.30;;;;;;5014273;28;20042;-74
2020/12/19 06:12:34;;;;;;;73.47;25.50;;;3.60;95.40;;;;;;5013089;28;20124;-74
2020/12/19 06:15:04;;;;;;;76.87;25.77;;;3.50;95.30;;;;;;5045842;28;20088;-74
2020/12/19 06:17:48;;;;;;;82.27;27.50;;;3.60;95.20;;;;;;5045261;28;20074;-74
2020/12/19 06:20:15;;;;;;;69.80;24.93;;;3.60;95.40;;;;;;5014103;28;20538;-74
2020/12/19 06:22:41;;;;;;;75.63;27.13;;;3.60;95.40;;;;;;5013047;28;20048;-74
2020/12/19 06:25:06;;;;;;;78.40;27.17;;;3.60;95.30;;;;;;5012641;28;20038;-74
2020/12/19 06:27:32;;;;;;;72.83;26.17;;;3.60;95.40;;;;;;5012524;28;20415;-74
2020/12/19 06:29:58;;;;;;;72.97;25.17;;;3.60;95.50;;;;;;5013439;28;20034;-75
2020/12/19 06:32:26;;;;;;;68.10;22.67;;;3.60;95.40;;;;;;5011884;28;20440;-74
2020/12/19 06:35:08;;;;;;;83.03;27.53;;;3.60;95.30;;;;;;5013524;28;20510;-74
2020/12/19 06:37:35;;;;;;;80.67;25.63;;;3.60;95.40;;;;;;5013683;28;20041;-74
2020/12/19 06:40:20;;;;;;;79.90;25.97;;;3.60;95.40;;;;;;5013318;28;20124;-74
2020/12/19 06:42:47;;;;;;;66.37;25.53;;;3.60;95.40;;;;;;5011851;28;20053;-74
2020/12/19 06:45:23;;;;;;;69.80;25.23;;;3.60;95.50;;;;;;5013156;28;20517;-74
2020/12/19 06:47:49;;;;;;;68.43;25.07;;;3.60;95.50;;;;;;5045196;28;20038;-74
2020/12/19 06:50:15;;;;;;;69.70;24.83;;;3.60;95.50;;;;;;5000076;28;20113;-74
2020/12/19 06:52:56;;;;;;;68.37;25.20;;;3.60;95.40;;;;;;4993447;28;20027;-74
2020/12/19 06:55:24;;;;;;;73.38;26.38;;;3.60;95.40;;;;;;4993326;28;20035;-74
2020/12/19 06:57:52;;;;;;;74.60;26.13;;;3.60;95.40;;;;;;5024755;28;20038;-74
2020/12/19 07:00:22;;;;;;;78.97;25.70;;;3.60;95.30;;;;;;4993450;28;20081;-75
2020/12/19 07:02:55;;;;;;;69.27;24.77;;;3.60;95.40;;;;;;4993262;28;20134;-75
2020/12/19 07:05:23;;;;;;;74.43;26.03;;;3.50;95.40;;;;;;5024254;28;20046;-75
2020/12/19 07:07:50;;;;;;;71.60;25.47;;;3.60;95.50;;;;;;4993391;28;20415;-75
2020/12/19 07:10:32;;;;;;;77.17;26.37;;;3.60;95.40;;;;;;4993190;28;20491;-74
2020/12/19 07:12:58;;;;;;;69.87;25.37;;;3.60;95.40;;;;;;4993013;28;20499;-74
2020/12/19 07:15:45;;;;;;;72.23;26.10;;;3.50;95.40;;;;;;4993059;28;20096;-74
2020/12/19 07:18:32;;;;;;;77.00;27.17;;;3.60;95.50;;;;;;4992413;28;20034;-75
2020/12/19 07:21:10;;;;;;;74.47;24.83;;;3.60;95.40;;;;;;5008035;28;20483;-75
2020/12/19 07:23:38;;;;;;;76.57;26.73;;;3.50;95.40;;;;;;4992601;28;20042;-75
2020/12/19 07:26:06;;;;;;;77.93;26.03;;;3.60;95.40;;;;;;4992694;28;20054;-74
2020/12/19 07:28:32;;;;;;;68.30;25.47;;;3.60;95.50;;;;;;4993164;28;20030;-75
2020/12/19 07:30:58;;;;;;;68.67;24.90;;;3.60;95.50;;;;;;4992810;28;20034;-75
2020/12/19 07:33:24;;;;;;;56.23;23.20;;;3.60;95.50;;;;;;4992645;28;20484;-74
2020/12/19 07:35:50;;;;;;;60.30;24.00;;;3.60;95.60;;;;;;4992999;28;20034;-75
2020/12/19 07:38:19;;;;;;;56.23;23.20;;;3.60;95.50;;;;;;4993339;28;20034;-73
2020/12/19 07:40:44;;;;;;;57.63;23.23;;;3.60;95.60;;;;;;4993044;28;20030;-74
2020/12/19 07:43:11;;;;;;;51.83;22.53;;;3.60;95.50;;;;;;4991687;28;20053;-73
2020/12/19 07:45:38;;;;;;;53.50;21.57;;;3.60;95.50;;;;;;4992748;28;20049;-73
2020/12/19 07:48:05;;;;;;;49.87;21.50;;;3.60;95.50;;;;;;4992303;28;20047;-73
2020/12/19 07:50:33;;;;;;;51.30;22.50;;;3.60;95.50;;;;;;4991537;28;20038;-73
2020/12/19 07:53:03;;;;;;;59.10;23.87;;;3.60;95.50;;;;;;4990848;28;20106;-73
2020/12/19 07:55:29;;;;;;;56.30;22.63;;;3.60;95.50;;;;;;4992245;28;20039;-73
2020/12/19 07:57:56;;;;;;;49.30;21.20;;;3.60;95.50;;;;;;5023866;28;20549;-73
2020/12/19 08:00:23;;;;;;;50.07;21.93;;;3.60;95.60;;;;;;4992169;28;20038;-73
2020/12/19 08:02:48;;;;;;;50.40;22.33;;;3.70;95.60;;;;;;4991933;28;20058;-73
2020/12/19 08:05:14;;;;;;;49.10;21.73;;;3.60;95.60;;;;;;4992272;28;20101;-73
2020/12/19 08:07:41;;;;;;;52.60;22.33;;;3.70;95.60;;;;;;4991951;28;20034;-73
2020/12/19 08:10:09;;;;;;;48.23;21.07;;;3.60;95.60;;;;;;4992176;28;20042;-73
2020/12/19 08:12:36;;;;;;;46.33;20.97;;;3.70;95.70;;;;;;4990171;28;20451;-73
2020/12/19 08:15:05;;;;;;;45.53;21.47;;;3.70;95.70;;;;;;5021947;28;20053;-73
2020/12/19 08:17:37;;;;;;;38.57;19.47;;;3.70;95.70;;;;;;5021712;28;20100;-73
2020/12/19 08:20:03;;;;;;;45.10;19.73;;;3.80;95.70;;;;;;4990344;28;20038;-73
2020/12/19 08:22:30;;;;;;;41.40;20.57;;;3.80;95.70;;;;;;4989477;28;20038;-73
2020/12/19 08:24:56;;;;;;;40.40;19.70;;;3.80;95.70;;;;;;5021536;28;20077;-73
2020/12/19 08:27:54;;;;;;;42.30;18.97;;;3.90;95.80;;;;;;4990553;28;20058;-73
2020/12/19 08:30:27;;;;;;;39.10;19.10;;;3.90;96.00;;;;;;4989170;28;20093;-73
2020/12/19 08:32:58;;;;;;;43.60;19.43;;;3.90;95.80;;;;;;4990313;28;20046;-73
2020/12/19 08:35:28;;;;;;;38.53;19.15;;;3.90;95.70;;;;;;4990500;28;20042;-74
2020/12/19 08:38:26;;;;;;;38.47;19.00;;;3.90;95.80;;;;;;4991062;28;20066;-73
2020/12/19 08:40:59;;;;;;;38.73;19.00;;;4.00;95.90;;;;;;4988950;28;20066;-73
2020/12/19 08:43:33;;;;;;;37.37;18.87;;;4.00;95.90;;;;;;4990222;28;20415;-73
2020/12/19 08:46:12;;;;;;;34.77;18.30;;;4.10;95.90;;;;;;5021495;28;20058;-73
2020/12/19 08:48:39;;;;;;;36.30;18.67;;;4.10;95.90;;;;;;4990295;28;20034;-73
2020/12/19 08:51:09;;;;;;;35.27;18.07;;;4.20;95.90;;;;;;5021645;28;20042;-73
2020/12/19 08:53:35;;;;;;;36.75;18.58;;;4.20;95.90;;;;;;4990303;28;20062;-73
2020/12/19 08:56:13;;;;;;;31.60;16.73;;;4.30;95.90;;;;;;4990321;28;20049;-73
2020/12/19 08:58:39;;;;;;;30.73;16.37;;;4.30;96.00;;;;;;4990086;28;20034;-73
2020/12/19 09:01:15;;;;;;;32.23;16.93;;;4.40;96.00;;;;;;4991084;28;20439;-73
2020/12/19 09:03:42;;;;;;;32.63;17.27;;;4.50;96.00;;;;;;4990011;28;20404;-73
2020/12/19 09:06:13;;;;;;;32.70;17.60;;;4.50;96.00;;;;;;5021778;28;20407;-73
2020/12/19 09:08:40;;;;;;;29.67;16.02;;;4.60;96.00;;;;;;4989289;28;20070;-73
2020/12/19 09:11:08;;;;;;;29.33;14.80;;;4.60;96.00;;;;;;5005504;28;20035;-72
2020/12/19 09:13:37;;;;;;;28.97;14.93;;;4.70;96.00;;;;;;4990333;28;20162;-73
2020/12/19 09:16:09;;;;;;;30.30;16.23;;;4.70;96.00;;;;;;4991034;28;20080;-73
2020/12/19 09:18:37;;;;;;;30.57;16.30;;;4.80;96.00;;;;;;4989542;28;20038;-73
2020/12/19 09:21:05;;;;;;;30.03;15.10;;;4.90;96.20;;;;;;4990957;28;20550;-73
2020/12/19 09:23:31;;;;;;;22.73;13.30;;;5.20;96.60;;;;;;4989910;28;20431;-73
2020/12/19 09:25:59;;;;;;;21.90;12.63;;;5.50;96.90;;;;;;4991180;28;20034;-72
2020/12/19 09:28:25;;;;;;;19.37;12.23;;;6.20;97.40;;;;;;5038644;28;20053;-71
2020/12/19 09:30:53;;;;;;;19.90;11.93;;;6.70;97.20;;;;;;4991461;28;20042;-73
2020/12/19 09:33:19;;;;;;;20.60;11.43;;;7.00;95.70;;;;;;4990756;28;20053;-73
2020/12/19 09:35:45;;;;;;;20.47;12.47;;;7.10;95.30;;;;;;4990960;28;20046;-72
2020/12/19 09:38:11;;;;;;;19.13;12.30;;;7.50;95.20;;;;;;4991224;28;20038;-73
2020/12/19 09:40:37;;;;;;;19.70;11.83;;;7.90;94.20;;;;;;4990788;28;20061;-73
2020/12/19 09:43:04;;;;;;;18.63;12.13;;;8.00;93.40;;;;;;4993173;28;20049;-72
2020/12/19 09:45:30;;;;;;;21.80;12.70;;;8.00;93.30;;;;;;4995200;28;20447;-73
2020/12/19 09:47:57;;;;;;;20.43;12.13;;;8.10;92.70;;;;;;5042593;28;20030;-73
2020/12/19 09:50:24;;;;;;;19.93;12.53;;;8.00;92.40;;;;;;4995022;28;20575;-73
2020/12/19 09:52:50;;;;;;;20.00;11.70;;;7.70;92.40;;;;;;4994032;28;20483;-73
2020/12/19 09:55:16;;;;;;;21.10;12.43;;;7.30;92.90;;;;;;4994918;28;20049;-73
2020/12/19 09:57:42;;;;;;;21.00;12.60;;;7.10;93.00;;;;;;4993209;28;20034;-73
2020/12/19 10:00:09;;;;;;;23.40;13.13;;;6.80;93.10;;;;;;5025189;28;20037;-73
2020/12/19 10:02:40;;;;;;;22.83;12.30;;;6.60;93.40;;;;;;4993397;28;20042;-73
2020/12/19 10:05:06;;;;;;;20.23;12.17;;;6.50;94.10;;;;;;5024723;28;20459;-73
2020/12/19 10:07:32;;;;;;;23.10;13.10;;;6.60;94.40;;;;;;5025509;28;20031;-73
2020/12/19 10:09:58;;;;;;;20.57;12.63;;;6.60;94.40;;;;;;4993556;28;20403;-72
2020/12/19 10:12:24;;;;;;;23.00;13.40;;;6.60;93.90;;;;;;4993248;28;20042;-73
2020/12/19 10:14:49;;;;;;;20.10;12.47;;;6.40;93.90;;;;;;4993798;28;20117;-73
2020/12/19 10:17:15;;;;;;;24.37;13.17;;;6.40;94.10;;;;;;4993206;28;20038;-73
2020/12/19 10:19:41;;;;;;;24.53;13.70;;;6.30;94.30;;;;;;4994104;28;20360;-73
2020/12/19 10:22:07;;;;;;;22.20;12.47;;;6.30;94.40;;;;;;4993239;28;20561;-73
2020/12/19 10:24:32;;;;;;;21.87;12.70;;;6.40;94.70;;;;;;4993965;28;20048;-73
2020/12/19 10:26:58;;;;;;;25.07;13.83;;;6.50;94.70;;;;;;4993618;28;20100;-73
2020/12/19 10:29:24;;;;;;;20.33;12.73;;;6.70;94.60;;;;;;4993217;28;20074;-73
2020/12/19 10:31:50;;;;;;;22.20;12.70;;;6.80;94.50;;;;;;4992884;28;20044;-73
2020/12/19 10:34:15;;;;;;;21.13;12.63;;;7.00;94.60;;;;;;4993177;28;20050;-72
2020/12/19 10:36:41;;;;;;;21.27;12.53;;;7.20;94.30;;;;;;4992644;28;20068;-73
2020/12/19 10:39:07;;;;;;;22.10;11.70;;;7.40;94.10;;;;;;4992213;28;20034;-73
2020/12/19 10:41:33;;;;;;;21.13;12.50;;;7.50;93.90;;;;;;4992796;28;20043;-73
2020/12/19 10:43:59;;;;;;;19.60;11.47;;;7.60;93.60;;;;;;4993567;28;20094;-73
2020/12/19 10:46:27;;;;;;;19.47;12.13;;;7.60;93.70;;;;;;5025315;28;20116;-73
2020/12/19 10:48:54;;;;;;;18.87;11.90;;;7.60;93.90;;;;;;4993217;28;20459;-74
2020/12/19 10:51:27;;;;;;;20.07;12.07;;;7.70;93.80;;;;;;5024928;28;20042;-73
2020/12/19 10:53:53;;;;;;;20.17;12.07;;;8.10;93.80;;;;;;5023394;28;20035;-73
2020/12/19 10:56:20;;;;;;;22.80;12.73;;;8.50;92.90;;;;;;4993415;28;20041;-73
2020/12/19 10:58:46;;;;;;;18.37;11.27;;;8.80;91.90;;;;;;4993175;28;20026;-72
2020/12/19 11:01:11;;;;;;;18.50;11.23;;;8.90;91.50;;;;;;4993266;28;20148;-73
2020/12/19 11:03:37;;;;;;;18.67;11.53;;;8.90;90.90;;;;;;4992891;28;20531;-73
2020/12/19 11:06:03;;;;;;;19.93;11.77;;;8.60;91.10;;;;;;4992959;28;20523;-72
2020/12/19 11:08:29;;;;;;;20.37;12.07;;;8.30;91.20;;;;;;5009270;28;20041;-72
2020/12/19 11:10:54;;;;;;;18.97;11.33;;;8.00;92.00;;;;;;5014896;28;20049;-73
2020/12/19 11:13:20;;;;;;;20.63;12.13;;;7.80;92.40;;;;;;5015719;28;20034;-73
2020/12/19 11:15:46;;;;;;;19.10;11.73;;;7.80;92.90;;;;;;5026861;28;20041;-73
2020/12/19 11:18:11;;;;;;;18.40;10.93;;;7.70;93.00;;;;;;5015263;28;20049;-72
2020/12/19 11:20:37;;;;;;;20.03;10.97;;;7.60;93.10;;;;;;5031021;28;20087;-72
2020/12/19 11:23:03;;;;;;;17.83;11.30;;;7.70;93.30;;;;;;5021757;28;20042;-72
2020/12/19 11:25:29;;;;;;;19.10;11.53;;;7.70;93.50;;;;;;5022947;28;20087;-72
2020/12/19 11:27:55;;;;;;;18.00;10.90;;;7.90;93.60;;;;;;5015299;28;20513;-73
2020/12/19 11:30:20;;;;;;;17.77;11.37;;;8.10;93.80;;;;;;5058906;28;20038;-73
2020/12/19 11:32:46;;;;;;;17.33;11.13;;;8.20;93.40;;;;;;5012035;28;20614;-73
2020/12/19 11:35:12;;;;;;;20.40;11.40;;;8.30;93.00;;;;;;5010663;28;20038;-72
2020/12/19 11:37:38;;;;;;;18.70;10.27;;;8.30;92.90;;;;;;5021874;28;20116;-73
2020/12/19 11:40:05;;;;;;;18.67;11.47;;;8.20;92.50;;;;;;5010370;28;20124;-73
2020/12/19 11:42:30;;;;;;;21.67;12.07;;;8.10;92.40;;;;;;5022748;28;20052;-73
2020/12/19 11:44:56;;;;;;;16.90;10.87;;;7.90;92.50;;;;;;5026441;28;20041;-73
2020/12/19 11:47:22;;;;;;;20.57;12.23;;;7.80;92.60;;;;;;5027773;28;20442;-73
2020/12/19 11:49:47;;;;;;;20.27;11.73;;;7.70;92.80;;;;;;5028281;28;20041;-73
2020/12/19 11:52:13;;;;;;;21.50;12.27;;;7.60;93.00;;;;;;5015029;28;20038;-73
2020/12/19 11:54:39;;;;;;;19.07;11.77;;;7.60;93.10;;;;;;5013647;28;20045;-73
2020/12/19 11:57:06;;;;;;;20.40;12.60;;;7.60;93.10;;;;;;5014869;28;20037;-74
2020/12/19 11:59:33;;;;;;;20.90;12.07;;;7.70;93.20;;;;;;5012297;28;20538;-71
2020/12/19 12:02:04;;;;;;;20.50;11.93;;;7.80;93.30;;;;;;5013432;28;20052;-73
2020/12/19 12:04:30;;;;;;;20.07;11.17;;;8.10;93.30;;;;;;5023972;28;20033;-73
2020/12/19 12:06:56;;;;;;;20.00;12.43;;;8.60;93.40;;;;;;5014841;28;20054;-73
2020/12/19 12:09:22;;;;;;;19.00;10.73;;;9.20;93.50;;;;;;4991256;28;20557;-73
2020/12/19 12:11:48;;;;;;;15.83;9.93;;;9.50;93.80;;;;;;4991491;28;20049;-73
2020/12/19 12:14:13;;;;;;;18.20;10.90;;;9.70;93.50;;;;;;4992150;28;20058;-73
2020/12/19 12:16:39;;;;;;;16.85;10.27;;;9.70;93.00;;;;;;4992303;28;20495;-73
2020/12/19 12:19:05;;;;;;;17.33;10.60;;;9.90;92.80;;;;;;4991886;28;20048;-73
2020/12/19 12:21:38;;;;;;;17.92;10.82;;;10.10;92.10;;;;;;4998801;28;20038;-73
2020/12/19 12:24:05;;;;;;;17.85;10.85;;;10.10;91.10;;;;;;5020495;28;20046;-73
2020/12/19 12:26:31;;;;;;;15.85;9.93;;;10.10;91.10;;;;;;5011011;28;20040;-73
2020/12/19 12:28:57;;;;;;;17.33;10.35;;;10.20;91.20;;;;;;5010307;28;20034;-73
2020/12/19 12:31:29;;;;;;;16.40;9.88;;;10.70;90.90;;;;;;4993282;28;20384;-73
2020/12/19 12:33:55;;;;;;;15.15;8.18;;;11.20;90.60;;;;;;5011166;28;20046;-73
2020/12/19 12:36:22;;;;;;;16.35;10.23;;;11.40;88.70;;;;;;5009898;28;20030;-73